Upstream stations:
Downstream station:
SHEF ID: SNCO2 North Canadian River at Shawnee,
STATION TYPE:
STAGE RIV-FLOW BAT-LOAD
ft cfs volt
Ccp-Rev Ccp-Rev Ccp-Rev
(US/Central)
09/25 00:00 9.29 174 12.65
09/25 01:00 9.28 171 12.65
09/25 02:00 9.27 169 12.65
09/25 03:00 9.26 166 12.65
09/25 04:00 9.26 166 12.60
09/25 05:00 9.26 166 12.60
09/25 06:00 9.26 166 12.60
09/25 07:00 9.26 166 12.54
09/25 08:00 9.26 166 12.60
09/25 09:00 9.26 166 13.30
09/25 10:00 9.25 164 13.42
09/25 11:00 9.25 164 13.42
09/25 12:00 9.26 166 13.36
09/25 13:00 9.27 169 13.36
09/25 14:00 9.29 174 13.48
09/25 15:00 9.28 171 13.36
09/25 16:00 9.28 171 13.30
09/25 17:00 9.30 177 13.30
09/25 18:00 9.28 171 13.18
09/25 19:00 9.29 174 13.07
09/25 20:00 9.29 174 12.83
09/25 21:00 9.30 177 12.77
09/25 22:00 9.30 177 12.71
09/25 23:00 ---- ---- ----